Airfield :
LOGIN :

Register | Disclaimer

   EN    FR    IT 

 










Legend :    VFR   Marginal VFR   IFR   Intensive IFR   Very Intensive IFR
Visi :
Ceiling :
>= 8 km
>= 3000ft
5 to 8 km
1000 to 3000 ft
1500m to 5 km
500 to 1000 ft
800 to 1500m
200 to 500 ft
< 800m
< 200 ft
Symbols :   Thunderstorms  Fog  Heavy snow  Heavy precipitations  Wind > 20 kt
SIGMETs :     Misc.  Thunderstorms  Icing  Turbulence  Mountain Waves  Volcanic Ashes







- Airport Elevation : 295 ft
- IATA code : BWE


EDVE - Braunschweig

CURRENT METAR :
  • 181250Z 13013KT CAVOK 20/00 Q1028

EXPIRED METARs :
  • 181220Z 12014KT CAVOK 20/01 Q1029
  • 181150Z 12013KT 100V160 CAVOK 19/00 Q1029
  • 181120Z 12014KT 090V150 CAVOK 19/M01 Q1029
  • 181050Z 09011KT 060V130 CAVOK 19/01 Q1029
  • 181020Z 09010KT 060V120 CAVOK 18/M00 Q1029

TAF TAF EDVE
Valid from the 18 at 12:00 until the 18 at 21:00 UTC


181100Z 1812/1821 09012KT CAVOK
BECMG 1817/1819 08007KT
No reported NOTAMs for that airfield.



MET'MAP, your aeronautical weather chart ! - Copyright ORBIFLY December 2007 - Disclaimer

ORBIFLY MET'MAP TEAM :

Programming & Development : Alexandra Zaïnal
Concept & Development : Baudouin d'Aumeries
Co-Development & Prog : Marc-Olivier Méhu
Technical & hardware support : Manuel Goepfert

Contact : metmap@orbifly.com




SOURCES & CREDITS :

   NOAA